Time;durP1;ratioP1;P1;durP2;ratioP2;P2;SDS_P1;SDS_P2;PMS_P1;PMS_P2;Temp;Humidity;BMP_temperature;BMP_pressure;BME280_temperature;BME280_humidity;BME280_pressure;Samples;Min_cycle;Max_cycle;Signal;HPM_P1;HPM_P2
2022/08/26 00:01:54;;;;;;;19.10;3.45;;;;;;;22.93;57.29;100058.84;4964340;28;20057;-87
2022/08/26 00:04:23;;;;;;;18.42;3.80;;;;;;;22.89;57.38;100063.16;4972337;28;20060;-88
2022/08/26 00:06:49;;;;;;;13.30;3.33;;;;;;;22.84;57.79;100054.91;4991229;28;20038;-87
2022/08/26 00:09:15;;;;;;;12.45;3.25;;;;;;;22.91;57.52;100066.47;4955198;28;20169;-88
2022/08/26 00:11:40;;;;;;;18.55;3.38;;;;;;;22.87;57.43;100050.81;4986600;28;20050;-87
2022/08/26 00:14:07;;;;;;;18.80;3.55;;;;;;;23.01;57.39;100071.28;4987410;28;20096;-87
2022/08/26 00:16:33;;;;;;;19.90;3.50;;;;;;;23.01;57.47;100079.50;4971307;28;20053;-86
2022/08/26 00:18:59;;;;;;;18.45;3.40;;;;;;;22.95;57.68;100066.81;4972542;28;20073;-86
2022/08/26 00:21:27;;;;;;;12.13;3.03;;;;;;;22.94;57.51;100071.47;4971022;28;20047;-86
2022/08/26 00:23:54;;;;;;;16.40;3.35;;;;;;;22.90;57.47;100061.28;4976100;28;20125;-87
2022/08/26 00:26:21;;;;;;;21.63;3.35;;;;;;;22.94;57.91;100074.22;4965964;28;20042;-86
2022/08/26 00:28:49;;;;;;;12.65;2.80;;;;;;;22.92;58.04;100068.16;4993264;28;20038;-86
2022/08/26 00:31:15;;;;;;;18.63;3.20;;;;;;;22.82;58.61;100059.81;4988446;28;20050;-86
2022/08/26 00:33:41;;;;;;;12.02;3.13;;;;;;;22.86;58.00;100060.94;4960039;28;20501;-85
2022/08/26 00:36:06;;;;;;;12.38;3.42;;;;;;;22.75;58.39;100048.22;4960206;28;20077;-86
2022/08/26 00:38:33;;;;;;;10.38;3.10;;;;;;;22.78;58.31;100055.94;4976280;28;20065;-86
2022/08/26 00:41:00;;;;;;;10.80;3.30;;;;;;;22.79;57.53;100049.38;4994372;28;20057;-85
2022/08/26 00:43:26;;;;;;;13.00;3.10;;;;;;;22.84;57.64;100067.78;4989448;28;20046;-90
2022/08/26 00:45:56;;;;;;;19.88;3.40;;;;;;;22.82;57.24;100058.97;4984917;28;20070;-87
2022/08/26 00:48:24;;;;;;;12.82;3.25;;;;;;;22.76;57.44;100060.84;4979281;28;20089;-86
2022/08/26 00:50:53;;;;;;;10.02;3.05;;;;;;;22.78;56.92;100061.41;4989512;28;20096;-87
2022/08/26 00:53:23;;;;;;;13.48;3.10;;;;;;;22.82;56.74;100065.28;4974672;28;20038;-87
2022/08/26 00:55:53;;;;;;;16.23;3.10;;;;;;;22.72;57.32;100054.22;4959663;28;20532;-87
2022/08/26 00:58:21;;;;;;;17.20;3.03;;;;;;;22.82;57.02;100065.28;4976724;28;20034;-88
2022/08/26 01:00:48;;;;;;;12.85;3.30;;;;;;;22.77;57.05;100065.22;4971518;28;20514;-87
2022/08/26 01:03:14;;;;;;;24.75;3.45;;;;;;;22.86;56.98;100071.91;4961185;28;20069;-87
2022/08/26 01:05:40;;;;;;;21.33;3.35;;;;;;;22.82;57.05;100068.03;4971681;28;20517;-85
2022/08/26 01:08:06;;;;;;;13.50;3.13;;;;;;;22.75;57.21;100064.66;4971781;28;20070;-85
2022/08/26 01:10:36;;;;;;;13.93;3.03;;;;;;;22.79;57.38;100065.81;4955816;28;20142;-85
2022/08/26 01:13:10;;;;;;;20.48;3.05;;;;;;;22.83;57.00;100072.44;4990902;28;20078;-87
2022/08/26 01:15:43;;;;;;;11.43;2.87;;;;;;;22.83;57.08;100055.13;4988623;28;20426;-87
2022/08/26 01:18:10;;;;;;;17.80;3.10;;;;;;;22.82;56.47;100058.97;4959190;28;20058;-86
2022/08/26 01:21:04;;;;;;;18.90;3.10;;;;;;;22.86;57.09;100063.69;4955531;28;20064;-87
2022/08/26 01:23:33;;;;;;;;;;;;;;;22.83;56.34;100056.00;4991966;28;20112;-85
2022/08/26 01:26:26;;;;;;;18.25;2.90;;;;;;;22.76;56.08;100058.09;4988475;28;19924;-86
2022/08/26 01:28:52;;;;;;;16.98;2.70;;;;;;;22.61;55.86;100049.69;4995375;28;20038;-87
2022/08/26 01:31:21;;;;;;;16.40;3.00;;;;;;;22.66;55.69;100049.75;4973385;28;20510;-89
2022/08/26 01:34:00;;;;;;;11.73;3.05;;;;;;;22.73;55.95;100062.19;4993857;28;20049;-86
2022/08/26 01:36:27;;;;;;;14.68;2.83;;;;;;;22.79;55.18;100060.31;4992252;28;20054;-88
2022/08/26 01:38:52;;;;;;;18.00;2.90;;;;;;;22.67;55.13;100040.47;4978260;28;20113;-88
2022/08/26 01:41:19;;;;;;;6.57;2.40;;;;;;;22.72;54.90;100048.72;4972135;28;20482;-86
2022/08/26 01:43:48;;;;;;;14.02;3.00;;;;;;;22.49;55.07;100026.00;4954567;28;20478;-86
2022/08/26 01:46:16;;;;;;;20.80;3.00;;;;;;;22.47;54.98;100022.66;4970064;28;20556;-86
2022/08/26 01:48:43;;;;;;;11.88;2.70;;;;;;;22.68;54.68;100037.44;4959157;28;20053;-87
2022/08/26 01:51:09;;;;;;;19.13;2.88;;;;;;;22.53;53.74;100013.44;4943036;28;20034;-89
2022/08/26 01:53:35;;;;;;;14.50;2.90;;;;;;;22.62;53.99;100034.94;4969519;28;20070;-90
2022/08/26 01:56:01;;;;;;;23.48;2.90;;;;;;;22.68;53.72;100031.16;4960205;28;20037;-88
2022/08/26 01:59:09;;;;;;;17.70;3.33;;;;;;;22.62;53.29;100027.53;4990252;28;20089;-90
2022/08/26 02:01:40;;;;;;;10.98;2.80;;;;;;;22.66;53.42;100038.78;4986735;28;20038;-89
2022/08/26 02:04:28;;;;;;;15.05;2.90;;;;;;;22.70;53.22;100034.47;4989464;28;20403;-90
2022/08/26 02:06:53;;;;;;;17.23;2.67;;;;;;;22.62;52.86;100022.03;4991486;28;20038;-90
2022/08/26 02:09:19;;;;;;;7.63;2.72;;;;;;;22.77;52.60;100024.13;4956889;28;20458;-89
2022/08/26 02:11:47;;;;;;;9.55;2.47;;;;;;;22.68;52.39;100012.78;4974327;28;20045;-90
2022/08/26 02:14:22;;;;;;;13.70;2.95;;;;;;;22.63;52.00;100018.22;4974642;28;20454;-90
2022/08/26 02:16:50;;;;;;;21.38;3.05;;;;;;;22.66;52.63;100014.94;4962192;28;20051;-88
2022/08/26 02:19:31;;;;;;;19.27;2.60;;;;;;;22.80;52.39;100050.19;4960947;28;20073;-86
2022/08/26 02:21:58;;;;;;;19.80;3.30;;;;;;;22.75;52.29;100034.50;4993398;28;20065;-86
2022/08/26 02:24:28;;;;;;;12.55;2.60;;;;;;;22.69;51.46;100030.06;4977974;28;20191;-90
2022/08/26 02:26:56;;;;;;;14.93;2.90;;;;;;;22.67;50.68;100027.56;4983316;28;20046;-89
2022/08/26 02:29:29;;;;;;;12.90;2.78;;;;;;;22.62;50.63;100016.56;4990120;28;20141;-88
2022/08/26 02:31:54;;;;;;;17.10;2.67;;;;;;;22.71;50.52;100016.91;4979315;28;20059;-88
2022/08/26 02:34:24;;;;;;;16.55;2.70;;;;;;;22.68;50.66;100039.34;4973541;28;20049;-87
2022/08/26 02:36:50;;;;;;;13.70;3.00;;;;;;;22.70;50.73;100039.94;4955455;28;20043;-88
2022/08/26 02:39:20;;;;;;;16.40;3.03;;;;;;;22.47;51.37;100008.16;4972825;28;20107;-88
2022/08/26 02:41:46;;;;;;;12.43;2.63;;;;;;;22.61;51.20;100027.78;4968712;28;20042;-87
2022/08/26 02:44:14;;;;;;;12.48;2.63;;;;;;;22.50;51.69;100015.84;4976396;28;20049;-88
2022/08/26 02:46:41;;;;;;;13.25;2.70;;;;;;;22.56;52.16;100031.28;4974817;28;20057;-86
2022/08/26 02:49:07;;;;;;;9.40;2.58;;;;;;;22.53;52.22;100031.78;4976313;28;20034;-87
2022/08/26 02:51:34;;;;;;;13.20;2.80;;;;;;;22.47;52.82;100016.38;4979592;28;20042;-87
2022/08/26 02:53:59;;;;;;;15.90;2.70;;;;;;;22.59;52.82;100032.69;4974599;28;20046;-88
2022/08/26 02:56:25;;;;;;;19.17;2.65;;;;;;;22.57;52.84;100040.31;4977104;28;20074;-87
2022/08/26 02:58:50;;;;;;;17.10;3.10;;;;;;;22.41;53.07;100012.75;4957700;28;20046;-88
2022/08/26 03:01:24;;;;;;;19.95;2.78;;;;;;;22.54;52.93;100037.00;4994660;28;20050;-88
2022/08/26 03:03:51;;;;;;;11.35;3.15;;;;;;;22.53;52.12;100032.63;4983184;28;20042;-87
2022/08/26 03:06:16;;;;;;;13.50;2.80;;;;;;;22.54;51.68;100031.53;4983198;28;20255;-88
2022/08/26 03:08:47;;;;;;;14.05;2.58;;;;;;;22.46;51.38;100020.22;4944145;28;20075;-88
2022/08/26 03:11:13;;;;;;;13.98;2.80;;;;;;;22.51;51.38;100042.19;4984171;28;20096;-88
2022/08/26 03:13:40;;;;;;;14.07;2.78;;;;;;;22.54;50.70;100044.41;4959641;28;20058;-90
2022/08/26 03:16:06;;;;;;;13.63;2.67;;;;;;;22.59;50.79;100046.38;4968257;28;20038;-89
2022/08/26 03:18:33;;;;;;;19.40;2.97;;;;;;;22.40;50.80;100027.50;4957951;28;20045;-89
2022/08/26 03:21:14;;;;;;;13.77;2.65;;;;;;;22.57;51.17;100045.78;4970197;28;20152;-91
2022/08/26 03:23:42;;;;;;;15.05;2.67;;;;;;;22.54;52.23;100042.47;4988410;28;20046;-88
2022/08/26 03:26:08;;;;;;;12.88;3.10;;;;;;;22.60;52.37;100042.56;4972856;28;20490;-88
2022/08/26 03:28:33;;;;;;;21.42;3.30;;;;;;;22.71;52.49;100042.44;4973829;28;20041;-89
2022/08/26 03:30:59;;;;;;;17.02;3.08;;;;;;;22.84;52.56;100052.16;4971140;28;20050;-89
2022/08/26 03:33:26;;;;;;;15.88;2.92;;;;;;;22.71;53.40;100036.94;4974261;28;20061;-88
2022/08/26 03:35:53;;;;;;;17.15;3.20;;;;;;;22.82;52.98;100037.06;4977655;28;20042;-88
2022/08/26 03:38:21;;;;;;;17.45;3.38;;;;;;;22.93;52.68;100038.81;4977506;28;20050;-89
2022/08/26 03:40:47;;;;;;;17.63;3.85;;;;;;;22.99;52.79;100042.47;4980061;28;20046;-88
2022/08/26 03:43:25;;;;;;;12.75;3.47;;;;;;;23.14;52.20;100039.91;5007561;28;20043;-87
2022/08/26 03:45:52;;;;;;;22.02;3.20;;;;;;;23.15;51.50;100036.06;4992893;28;20467;-89
2022/08/26 03:48:17;;;;;;;15.20;3.28;;;;;;;23.10;51.72;100027.78;4968605;28;20046;-88
2022/08/26 03:50:43;;;;;;;19.85;3.00;;;;;;;23.31;51.60;100048.81;4974261;28;20034;-88
2022/08/26 03:53:13;;;;;;;13.73;3.30;;;;;;;23.41;49.86;100050.00;4977393;28;20415;-90
2022/08/26 03:55:39;;;;;;;15.25;3.15;;;;;;;23.43;49.47;100043.16;4992176;28;20490;-89
2022/08/26 03:58:06;;;;;;;19.98;3.30;;;;;;;23.58;49.55;100047.97;4983701;28;20039;-89
2022/08/26 04:00:33;;;;;;;19.70;3.58;;;;;;;23.67;48.26;100043.66;4977273;28;20043;-89
2022/08/26 04:02:58;;;;;;;19.15;3.13;;;;;;;23.67;47.90;100032.69;4975643;28;20507;-89
2022/08/26 04:05:24;;;;;;;10.63;2.72;;;;;;;23.73;46.24;100036.28;4992304;28;20046;-90
2022/08/26 04:07:50;;;;;;;16.40;3.40;;;;;;;23.74;45.26;100044.28;4979950;28;20395;-87
2022/08/26 04:10:20;;;;;;;18.42;4.28;;;;;;;23.76;44.70;100027.53;4994578;28;20084;-88
2022/08/26 04:12:47;;;;;;;20.17;3.00;;;;;;;24.00;44.25;100048.03;4961623;28;20057;-89
2022/08/26 04:15:14;;;;;;;23.27;3.28;;;;;;;23.93;44.32;100041.13;4973923;28;20133;-89
2022/08/26 04:17:41;;;;;;;21.67;3.35;;;;;;;24.13;44.37;100049.47;4991048;28;20050;-88
2022/08/26 04:20:07;;;;;;;16.13;4.00;;;;;;;24.22;44.11;100044.31;4971273;28;20092;-89
2022/08/26 04:22:33;;;;;;;25.25;3.58;;;;;;;24.43;43.10;100062.56;4972391;28;20050;-89
2022/08/26 04:24:59;;;;;;;14.10;3.08;;;;;;;24.41;42.63;100050.19;4975733;28;20068;-88
2022/08/26 04:27:25;;;;;;;17.20;2.70;;;;;;;24.58;42.51;100061.84;4974977;28;20046;-88
2022/08/26 04:29:53;;;;;;;13.77;2.67;;;;;;;24.60;42.04;100045.88;4999327;28;20030;-88
2022/08/26 04:32:20;;;;;;;18.15;2.92;;;;;;;24.76;42.19;100070.69;4981343;28;20233;-89
2022/08/26 04:34:46;;;;;;;16.40;3.13;;;;;;;24.87;41.03;100061.38;4982747;28;20149;-89
2022/08/26 04:37:16;;;;;;;19.80;3.10;;;;;;;24.94;41.01;100070.19;4956608;28;20138;-89
2022/08/26 04:39:49;;;;;;;12.13;2.65;;;;;;;25.08;40.44;100072.44;4984810;28;20047;-90
2022/08/26 04:42:19;;;;;;;18.27;4.28;;;;;;;25.18;40.30;100080.75;4976930;28;20042;-89
2022/08/26 04:45:05;;;;;;;13.85;3.13;;;;;;;25.25;40.33;100073.06;4977490;28;20053;-89
2022/08/26 04:47:33;;;;;;;14.18;2.80;;;;;;;25.41;40.42;100080.22;4991079;28;20046;-89
2022/08/26 04:50:02;;;;;;;15.70;3.03;;;;;;;25.59;39.95;100075.28;4979431;28;20049;-89
2022/08/26 04:52:35;;;;;;;16.77;3.20;;;;;;;25.62;40.54;100066.47;4990808;28;20046;-89
2022/08/26 04:55:00;;;;;;;18.70;3.17;;;;;;;25.65;40.79;100074.19;4996583;28;20049;-88
2022/08/26 04:57:29;;;;;;;18.20;3.78;;;;;;;25.58;41.21;100054.38;4994735;28;20038;-89
2022/08/26 04:59:56;;;;;;;25.40;3.65;;;;;;;25.98;39.90;100072.00;4974021;28;20249;-89
2022/08/26 05:02:22;;;;;;;23.38;3.10;;;;;;;25.88;39.87;100062.63;4993613;28;20046;-88
2022/08/26 05:04:47;;;;;;;22.25;4.00;;;;;;;26.21;39.73;100076.09;4979227;28;20042;-88
2022/08/26 05:07:15;;;;;;;17.65;3.42;;;;;;;26.36;39.42;100072.44;4992751;28;20126;-88
2022/08/26 05:09:42;;;;;;;14.35;3.25;;;;;;;26.45;38.73;100062.50;4977713;28;20034;-90
2022/08/26 05:12:12;;;;;;;19.50;3.50;;;;;;;26.57;39.69;100065.78;5000492;28;20080;-88
2022/08/26 05:14:40;;;;;;;24.40;4.25;;;;;;;26.74;40.05;100077.31;4989202;28;20042;-88
2022/08/26 05:17:11;;;;;;;29.02;4.35;;;;;;;26.84;38.77;100061.81;4987663;28;20073;-87
2022/08/26 05:19:38;;;;;;;19.65;3.50;;;;;;;27.13;38.45;100073.78;4983903;28;20060;-90
2022/08/26 05:22:08;;;;;;;24.17;4.00;;;;;;;27.42;37.61;100075.84;4977534;28;20045;-92
2022/08/26 05:24:37;;;;;;;24.75;4.05;;;;;;;27.39;37.04;100054.31;4979597;28;20486;-92
2022/08/26 05:27:03;;;;;;;20.38;3.95;;;;;;;27.76;36.08;100075.00;4993557;28;20097;-90
2022/08/26 05:29:30;;;;;;;22.25;5.18;;;;;;;28.09;35.22;100061.47;4975523;28;20042;-89
2022/08/26 05:31:55;;;;;;;19.02;3.95;;;;;;;28.60;33.63;100080.28;4975675;28;20355;-90
2022/08/26 05:34:21;;;;;;;23.25;4.30;;;;;;;29.51;32.07;100074.59;4977459;28;20046;-90
2022/08/26 05:36:46;;;;;;;17.73;4.05;;;;;;;30.80;30.28;100073.88;5000524;28;20038;-92
2022/08/26 05:39:12;;;;;;;28.70;4.20;;;;;;;31.82;27.89;100083.75;5008018;28;20051;-90
2022/08/26 05:41:40;;;;;;;14.85;3.50;;;;;;;32.71;26.45;100076.34;5003100;28;20041;-92
2022/08/26 05:44:12;;;;;;;21.90;3.92;;;;;;;33.32;25.55;100071.72;5009201;28;20029;-89
2022/08/26 05:46:37;;;;;;;22.40;3.63;;;;;;;34.33;24.20;100067.78;5013389;28;20030;-89
2022/08/26 05:49:07;;;;;;;21.85;4.15;;;;;;;34.93;23.65;100071.41;4985936;28;20077;-92
2022/08/26 05:51:34;;;;;;;21.85;3.85;;;;;;;34.46;24.05;100075.09;4992720;28;20809;-90
2022/08/26 05:54:07;;;;;;;22.75;4.20;;;;;;;33.97;25.27;100060.66;4963040;28;20129;-92
2022/08/26 05:56:32;;;;;;;26.33;4.30;;;;;;;34.21;25.50;100071.28;4977384;28;20100;-85
2022/08/26 05:59:01;;;;;;;26.67;4.55;;;;;;;33.85;25.77;100075.28;4975224;28;20046;-85
2022/08/26 06:01:28;;;;;;;27.20;4.78;;;;;;;33.80;26.17;100078.25;4983792;28;20042;-86
2022/08/26 06:04:00;;;;;;;28.20;4.45;;;;;;;33.40;25.72;100068.09;4976077;28;20092;-85
2022/08/26 06:06:30;;;;;;;27.65;4.32;;;;;;;33.74;25.68;100080.41;4987995;28;20100;-86
2022/08/26 06:08:58;;;;;;;21.52;4.68;;;;;;;34.00;24.57;100069.19;4977816;28;20115;-83
2022/08/26 06:11:24;;;;;;;20.67;4.95;;;;;;;35.32;23.49;100075.72;4991470;28;20053;-85
2022/08/26 06:13:52;;;;;;;19.95;4.85;;;;;;;35.69;22.79;100078.72;4990492;28;20048;-86
2022/08/26 06:16:19;;;;;;;21.85;4.47;;;;;;;36.04;22.54;100081.94;4986456;28;20046;-87
2022/08/26 06:18:45;;;;;;;27.42;5.15;;;;;;;36.70;22.33;100086.59;4992193;28;20141;-85
2022/08/26 06:21:20;;;;;;;19.58;4.30;;;;;;;36.88;21.62;100077.94;4990419;28;20038;-83
2022/08/26 06:26:32;;;;;;;24.80;5.32;;;;;;;36.73;22.97;100105.47;4989402;28;20101;-87
2022/08/26 06:28:58;;;;;;;34.80;5.32;;;;;;;36.45;23.71;100110.13;4976869;28;20042;-86
2022/08/26 06:31:25;;;;;;;24.40;5.22;;;;;;;35.23;25.42;100116.88;4988549;28;20108;-83
2022/08/26 06:33:50;;;;;;;25.00;5.30;;;;;;;34.56;26.43;100099.84;4960180;28;20125;-86
2022/08/26 06:36:24;;;;;;;20.98;4.88;;;;;;;33.95;26.23;100125.13;4986815;28;20069;-86
2022/08/26 06:38:52;;;;;;;24.73;5.03;;;;;;;33.37;27.41;100124.47;4972849;28;20124;-89
2022/08/26 06:41:19;;;;;;;25.02;5.65;;;;;;;33.40;27.25;100125.78;4956705;28;20054;-91
2022/08/26 06:43:46;;;;;;;31.98;5.57;;;;;;;33.16;27.39;100126.28;4976735;28;20046;-89
2022/08/26 06:46:15;;;;;;;18.35;5.35;;;;;;;33.07;26.72;100122.66;4993124;28;20053;-90
2022/08/26 06:48:42;;;;;;;28.85;5.00;;;;;;;33.53;26.17;100121.19;4983587;28;20112;-90
2022/08/26 06:51:12;;;;;;;20.60;5.25;;;;;;;33.26;27.10;100139.88;4957257;28;20526;-90
2022/08/26 06:53:39;;;;;;;24.13;5.03;;;;;;;33.28;26.77;100140.38;4972439;28;20077;-91
2022/08/26 06:56:05;;;;;;;22.20;4.97;;;;;;;33.65;26.17;100138.13;4987961;28;20490;-89
2022/08/26 06:58:36;;;;;;;23.40;5.43;;;;;;;33.93;25.68;100135.78;4959905;28;20414;-89
2022/08/26 07:01:26;;;;;;;26.38;5.43;;;;;;;34.18;25.16;100136.88;4989630;28;20510;-88
2022/08/26 07:03:54;;;;;;;27.50;5.10;;;;;;;34.44;25.40;100125.66;4958555;28;20050;-85
2022/08/26 07:06:29;;;;;;;20.58;4.90;;;;;;;34.44;24.67;100136.00;4961166;28;20050;-90
2022/08/26 07:09:03;;;;;;;20.73;4.70;;;;;;;34.12;25.18;100137.44;4996599;28;20038;-92
2022/08/26 07:11:32;;;;;;;26.40;4.65;;;;;;;34.18;24.79;100134.09;4991264;28;20066;-92
2022/08/26 07:13:59;;;;;;;28.80;5.00;;;;;;;34.16;24.88;100118.84;4976263;28;20126;-90
2022/08/26 07:16:26;;;;;;;19.63;4.60;;;;;;;34.55;24.55;100128.06;4974008;28;20038;-88
2022/08/26 07:18:54;;;;;;;26.58;5.63;;;;;;;34.43;25.19;100123.19;4959953;28;20034;-88
2022/08/26 07:21:23;;;;;;;24.17;5.18;;;;;;;34.18;25.34;100139.69;4988350;28;20105;-89
2022/08/26 07:23:50;;;;;;;25.15;5.10;;;;;;;34.37;25.64;100136.53;4973818;28;20149;-90
2022/08/26 07:26:27;;;;;;;31.88;6.60;;;;;;;34.15;24.83;100136.75;4988094;28;20050;-86
2022/08/26 07:28:55;;;;;;;30.08;5.00;;;;;;;34.30;25.43;100146.53;4975720;28;20126;-87
2022/08/26 07:31:37;;;;;;;26.70;4.90;;;;;;;33.61;25.88;100151.06;4994786;28;20494;-87
2022/08/26 07:34:08;;;;;;;24.38;5.47;;;;;;;33.76;26.26;100153.38;4980133;28;20502;-87
2022/08/26 07:36:36;;;;;;;33.72;5.65;;;;;;;34.16;26.31;100158.75;4993032;28;20042;-92
2022/08/26 07:39:02;;;;;;;38.53;5.57;;;;;;;34.23;25.65;100158.22;4999608;28;20050;-87
2022/08/26 07:41:30;;;;;;;28.58;6.32;;;;;;;34.34;26.21;100153.09;4995081;28;20078;-90
2022/08/26 07:43:57;;;;;;;25.67;5.20;;;;;;;34.16;25.63;100150.38;4997339;28;20125;-88
2022/08/26 07:46:25;;;;;;;18.90;5.00;;;;;;;34.06;25.07;100159.84;4980369;28;20081;-92
2022/08/26 07:49:39;;;;;;;19.23;4.97;;;;;;;34.20;24.70;100142.97;4987953;28;20046;-91
2022/08/26 07:52:18;;;;;;;25.15;5.22;;;;;;;34.36;25.47;100134.88;4998506;28;20069;-91
2022/08/26 07:54:59;;;;;;;29.48;4.90;;;;;;;33.84;25.33;100146.13;5005749;28;20142;-87
2022/08/26 07:57:25;;;;;;;26.75;5.30;;;;;;;34.18;25.90;100145.25;4996797;28;20035;-88
2022/08/26 08:00:05;;;;;;;25.92;5.65;;;;;;;34.23;26.06;100144.25;4997713;28;20133;-89
2022/08/26 08:02:32;;;;;;;24.52;6.43;;;;;;;34.12;26.24;100138.25;4996792;28;20042;-91
2022/08/26 08:04:58;;;;;;;25.13;6.15;;;;;;;34.19;25.43;100123.78;5010289;28;20119;-84
2022/08/26 08:07:27;;;;;;;31.75;5.38;;;;;;;34.13;25.70;100131.50;4985457;28;20050;-88
2022/08/26 08:09:55;;;;;;;24.48;6.28;;;;;;;34.24;25.44;100131.97;4995429;28;20253;-88
2022/08/26 08:12:20;;;;;;;26.67;6.07;;;;;;;33.90;25.81;100127.25;4985030;28;20043;-89
2022/08/26 08:15:12;;;;;;;30.17;5.53;;;;;;;33.91;26.07;100131.69;4990147;28;20045;-88
2022/08/26 08:17:42;;;;;;;28.25;6.60;;;;;;;33.85;26.47;100125.47;4988531;28;20082;-87
2022/08/26 08:20:10;;;;;;;31.20;6.45;;;;;;;33.57;27.01;100130.56;4995250;28;20038;-89
2022/08/26 08:22:39;;;;;;;31.48;6.32;;;;;;;33.61;26.27;100125.97;4996913;28;20050;-93
2022/08/26 08:25:06;;;;;;;20.25;6.13;;;;;;;33.41;26.76;100127.41;4965712;28;20198;-86
2022/08/26 08:27:38;;;;;;;24.23;5.82;;;;;;;33.05;26.98;100114.63;4993185;28;20433;-86
2022/08/26 08:30:04;;;;;;;27.77;5.55;;;;;;;33.26;26.85;100120.38;4986973;28;20394;-86
2022/08/26 08:32:32;;;;;;;26.30;5.53;;;;;;;32.55;27.30;100107.44;4991407;28;20066;-86
2022/08/26 08:34:59;;;;;;;30.85;6.00;;;;;;;32.42;27.95;100111.09;4990711;28;20089;-87
2022/08/26 08:37:25;;;;;;;27.05;5.53;;;;;;;32.38;27.94;100115.66;4971099;28;20049;-84
2022/08/26 08:39:52;;;;;;;28.90;5.90;;;;;;;32.33;28.22;100126.91;4992992;28;20066;-86
2022/08/26 08:42:39;;;;;;;22.40;5.55;;;;;;;32.55;27.16;100113.00;4978594;28;20050;-87
2022/08/26 08:48:38;;;;;;;25.50;5.65;;;;;;;32.24;28.02;100120.50;5010542;28;20040;-87
2022/08/26 08:51:19;;;;;;;24.42;6.15;;;;;;;32.08;28.42;100114.53;5002863;28;20503;-82
2022/08/26 08:53:45;;;;;;;24.77;5.50;;;;;;;31.91;28.52;100120.75;4972527;28;20095;-81
2022/08/26 08:56:35;;;;;;;23.30;6.20;;;;;;;32.10;28.07;100120.59;4960158;28;20042;-81
2022/08/26 08:59:19;;;;;;;20.27;6.05;;;;;;;32.11;28.98;100114.72;4992587;28;20104;-80
2022/08/26 09:01:51;;;;;;;31.58;5.82;;;;;;;32.08;28.92;100114.53;4973277;28;20030;-80
2022/08/26 09:04:17;;;;;;;26.75;6.10;;;;;;;31.76;29.48;100120.03;4992052;28;20498;-80
2022/08/26 09:06:42;;;;;;;31.60;6.15;;;;;;;31.69;29.39;100111.31;4987592;28;20036;-80
2022/08/26 09:09:07;;;;;;;34.08;6.60;;;;;;;31.69;29.50;100116.88;4959283;28;20042;-81
2022/08/26 09:11:35;;;;;;;32.78;6.65;;;;;;;31.55;30.01;100107.78;4968798;28;20046;-82
2022/08/26 09:14:02;;;;;;;32.22;6.78;;;;;;;31.35;29.46;100109.03;4976511;28;20043;-80
2022/08/26 09:16:45;;;;;;;29.15;6.40;;;;;;;31.15;29.91;100110.34;4975301;28;20455;-80
2022/08/26 09:19:39;;;;;;;30.45;6.88;;;;;;;31.17;29.80;100091.41;4959886;28;20080;-84
2022/08/26 09:22:07;;;;;;;25.00;6.00;;;;;;;31.20;29.55;100115.78;4975996;28;20410;-87
2022/08/26 09:24:35;;;;;;;29.98;6.15;;;;;;;31.15;29.56;100092.88;4959309;28;20112;-82
2022/08/26 09:27:01;;;;;;;24.05;6.35;;;;;;;31.38;30.26;100102.06;4976228;28;20170;-82
2022/08/26 09:29:32;;;;;;;32.45;7.15;;;;;;;31.60;30.11;100101.28;4956480;28;20050;-82
2022/08/26 09:32:19;;;;;;;25.52;6.18;;;;;;;31.74;29.70;100105.63;4991690;28;20430;-81
2022/08/26 09:35:05;;;;;;;26.70;6.43;;;;;;;31.87;30.19;100097.53;4982240;28;20125;-82
2022/08/26 09:37:50;;;;;;;23.88;7.13;;;;;;;31.87;29.14;100108.66;4960579;28;20046;-81
2022/08/26 09:40:34;;;;;;;23.27;6.35;;;;;;;31.51;29.50;100095.63;4982437;28;20074;-83
2022/08/26 09:43:18;;;;;;;27.13;5.82;;;;;;;31.46;29.81;100095.78;4988381;28;20502;-84
2022/08/26 09:45:47;;;;;;;26.77;6.18;;;;;;;31.05;30.41;100100.28;4974220;28;20101;-82
2022/08/26 09:48:28;;;;;;;28.73;5.72;;;;;;;31.32;29.69;100109.66;4959300;28;20038;-81
2022/08/26 09:50:59;;;;;;;36.50;5.70;;;;;;;31.33;30.04;100112.16;4963047;28;20103;-81
2022/08/26 09:53:35;;;;;;;20.42;6.28;;;;;;;31.03;30.74;100101.72;4987467;28;20062;-82
2022/08/26 09:56:09;;;;;;;22.25;5.80;;;;;;;31.12;30.69;100116.53;4987882;28;20038;-81
2022/08/26 09:58:39;;;;;;;29.83;6.47;;;;;;;30.86;31.70;100114.31;4991583;28;20045;-80
2022/08/26 10:01:07;;;;;;;24.38;5.68;;;;;;;30.36;32.12;100116.94;4990140;28;20069;-82
2022/08/26 10:03:38;;;;;;;28.38;5.90;;;;;;;30.07;33.66;100114.41;4975173;28;20112;-81
2022/08/26 10:06:25;;;;;;;24.60;5.35;;;;;;;30.24;33.66;100105.50;4974055;28;20050;-82
2022/08/26 10:08:55;;;;;;;27.00;5.65;;;;;;;30.36;34.10;100122.47;4975206;28;20049;-81
2022/08/26 10:11:39;;;;;;;23.65;5.97;;;;;;;30.04;34.13;100121.38;4974566;28;20081;-81
2022/08/26 10:14:31;;;;;;;25.23;5.38;;;;;;;29.65;35.53;100127.25;4997076;28;20038;-80
2022/08/26 10:17:04;;;;;;;24.80;5.60;;;;;;;29.52;36.21;100130.78;4987622;28;20053;-81
2022/08/26 10:20:13;;;;;;;32.75;5.30;;;;;;;29.01;38.32;100138.66;4985159;28;20077;-80
2022/08/26 10:23:07;;;;;;;23.45;4.93;;;;;;;28.63;39.10;100126.69;4992138;28;20046;-79
2022/08/26 10:25:39;;;;;;;23.48;5.07;;;;;;;28.87;38.17;100128.59;4967922;28;20042;-79
2022/08/26 10:28:21;;;;;;;21.90;5.20;;;;;;;28.84;37.94;100121.72;4958169;28;20514;-81
2022/08/26 10:30:54;;;;;;;21.48;4.90;;;;;;;28.99;36.73;100112.41;4988638;28;20040;-84
2022/08/26 10:33:22;;;;;;;17.25;4.22;;;;;;;29.22;36.03;100108.81;4973259;28;20322;-81
2022/08/26 10:35:54;;;;;;;19.05;4.43;;;;;;;29.18;36.05;100098.63;4973707;28;20042;-82
2022/08/26 10:38:37;;;;;;;17.52;4.60;;;;;;;29.50;36.21;100102.56;4988464;28;20481;-81
2022/08/26 10:41:19;;;;;;;21.05;4.65;;;;;;;29.38;35.84;100119.63;4971848;28;20050;-82
2022/08/26 10:44:05;;;;;;;19.10;4.32;;;;;;;29.52;35.23;100106.69;4967502;28;20453;-80
2022/08/26 10:46:57;;;;;;;15.32;4.13;;;;;;;29.58;35.00;100115.75;4971448;28;20507;-80
2022/08/26 10:49:23;;;;;;;19.27;3.80;;;;;;;29.70;35.29;100105.03;4970139;28;20085;-81
2022/08/26 10:52:02;;;;;;;37.83;4.18;;;;;;;29.79;35.09;100110.72;4973217;28;20069;-82
2022/08/26 10:54:52;;;;;;;22.50;4.72;;;;;;;30.00;34.77;100113.97;4969848;28;20101;-82
2022/08/26 10:57:27;;;;;;;21.30;4.97;;;;;;;30.12;35.03;100110.72;4988464;28;20041;-83
2022/08/26 11:03:10;;;;;;;26.13;4.20;;;;;;;30.41;33.78;100105.72;4985543;28;20267;-81
2022/08/26 11:05:36;;;;;;;22.88;3.90;;;;;;;30.49;34.32;100093.94;4986159;28;20073;-81
2022/08/26 11:08:29;;;;;;;22.90;4.32;;;;;;;30.56;34.35;100104.63;4982463;28;20489;-80
2022/08/26 11:10:58;;;;;;;22.70;4.70;;;;;;;30.38;34.32;100103.59;4981923;28;20038;-81
2022/08/26 11:14:02;;;;;;;27.58;4.97;;;;;;;30.42;34.42;100103.81;4976273;28;20038;-81
2022/08/26 11:16:56;;;;;;;24.08;4.70;;;;;;;30.46;33.94;100089.00;4985506;28;20085;-81
2022/08/26 11:19:38;;;;;;;20.60;4.38;;;;;;;30.50;33.54;100091.97;4971007;28;20141;-81
2022/08/26 11:22:32;;;;;;;18.98;4.50;;;;;;;30.60;32.94;100083.47;4985421;28;20423;-81
2022/08/26 11:24:57;;;;;;;17.83;4.53;;;;;;;30.37;34.23;100081.69;4968808;28;20038;-81
2022/08/26 11:27:23;;;;;;;26.92;4.82;;;;;;;30.49;33.86;100082.84;4982971;28;20439;-80
2022/08/26 11:30:04;;;;;;;24.20;4.53;;;;;;;30.48;33.49;100086.75;4988793;28;20505;-83
2022/08/26 11:32:32;;;;;;;21.02;4.45;;;;;;;30.28;33.60;100082.44;4990522;28;20049;-81
2022/08/26 11:34:59;;;;;;;20.63;4.70;;;;;;;30.33;33.62;100078.72;4975459;28;20096;-82
2022/08/26 11:37:30;;;;;;;26.95;4.95;;;;;;;30.14;34.95;100077.97;4984576;28;20582;-81
2022/08/26 11:39:56;;;;;;;20.92;5.05;;;;;;;30.15;34.49;100077.66;4957531;28;20046;-81
2022/08/26 11:42:35;;;;;;;19.23;4.57;;;;;;;30.18;33.96;100081.75;4952548;28;20113;-82
2022/08/26 11:45:14;;;;;;;24.98;5.18;;;;;;;30.15;34.27;100085.97;4989818;28;20053;-81